createdAt,value
2023-03-05T00:00:49.740Z,958
2023-03-05T00:01:53.273Z,958
2023-03-05T00:02:56.826Z,959
2023-03-05T00:04:00.440Z,958
2023-03-05T00:05:03.704Z,958
2023-03-05T00:06:07.005Z,958
2023-03-05T00:07:10.458Z,958
2023-03-05T00:08:13.812Z,958
2023-03-05T00:09:17.101Z,958
2023-03-05T00:10:20.432Z,958
2023-03-05T00:11:23.722Z,958
2023-03-05T00:12:27.045Z,958
2023-03-05T00:13:30.498Z,958
2023-03-05T00:14:33.794Z,958
2023-03-05T00:15:37.192Z,958
2023-03-05T00:16:40.488Z,958
2023-03-05T00:17:43.789Z,958
2023-03-05T00:18:48.130Z,958
2023-03-05T00:19:51.477Z,958
2023-03-05T00:20:54.762Z,958
2023-03-05T00:21:58.080Z,958
2023-03-05T00:23:01.477Z,958
2023-03-05T00:24:04.862Z,958
2023-03-05T00:25:08.373Z,958
2023-03-05T00:26:11.640Z,958
2023-03-05T00:27:14.917Z,958
2023-03-05T00:28:18.243Z,958
2023-03-05T00:29:21.571Z,958
2023-03-05T00:30:24.861Z,958
2023-03-05T00:31:28.295Z,958
2023-03-05T00:32:31.797Z,958
2023-03-05T00:33:35.464Z,958
2023-03-05T00:34:38.743Z,958
2023-03-05T00:35:42.233Z,958
2023-03-05T00:36:45.540Z,958
2023-03-05T00:37:48.825Z,958
2023-03-05T00:38:52.131Z,958
2023-03-05T00:39:55.487Z,958
2023-03-05T00:40:58.757Z,958
2023-03-05T00:42:02.369Z,958
2023-03-05T00:43:05.659Z,958
2023-03-05T00:44:08.997Z,958
2023-03-05T00:45:12.469Z,958
2023-03-05T00:46:15.978Z,958
2023-03-05T00:47:19.450Z,958
2023-03-05T00:48:22.740Z,958
2023-03-05T00:49:26.287Z,958
2023-03-05T00:50:29.596Z,958
2023-03-05T00:51:32.915Z,958
2023-03-05T00:52:36.213Z,958
2023-03-05T00:53:39.547Z,958
2023-03-05T00:54:42.830Z,958
2023-03-05T00:55:46.136Z,958
2023-03-05T00:56:49.540Z,958
2023-03-05T00:57:52.815Z,958
2023-03-05T00:58:56.344Z,958
2023-03-05T00:59:59.657Z,958
2023-03-05T01:01:03.313Z,958
2023-03-05T01:02:06.670Z,958
2023-03-05T01:03:09.972Z,958
2023-03-05T01:04:13.528Z,958
2023-03-05T01:05:16.928Z,958
2023-03-05T01:06:20.485Z,958
2023-03-05T01:07:23.771Z,958
2023-03-05T01:08:27.053Z,958
2023-03-05T01:09:30.513Z,958
2023-03-05T01:10:33.807Z,958
2023-03-05T01:11:37.134Z,958
2023-03-05T01:12:40.477Z,958
2023-03-05T01:13:43.792Z,958
2023-03-05T01:14:47.343Z,958
2023-03-05T01:15:50.664Z,958
2023-03-05T01:16:53.954Z,958
2023-03-05T01:17:57.449Z,958
2023-03-05T01:19:00.735Z,958
2023-03-05T01:20:04.026Z,958
2023-03-05T01:21:07.525Z,958
2023-03-05T01:22:10.807Z,958
2023-03-05T01:23:14.365Z,958
2023-03-05T01:24:17.674Z,958
2023-03-05T01:25:20.968Z,958
2023-03-05T01:26:24.466Z,958
2023-03-05T01:27:27.753Z,958
2023-03-05T01:28:31.034Z,958
2023-03-05T01:29:34.486Z,958
2023-03-05T01:30:37.765Z,958
2023-03-05T01:31:41.408Z,958
2023-03-05T01:32:44.722Z,958
2023-03-05T01:33:47.996Z,958
2023-03-05T01:34:51.488Z,958
2023-03-05T01:35:54.875Z,958
2023-03-05T01:36:58.149Z,958
2023-03-05T01:38:01.489Z,958
2023-03-05T01:39:04.804Z,958
2023-03-05T01:40:08.378Z,958
2023-03-05T01:41:11.669Z,958
2023-03-05T01:42:14.943Z,958
2023-03-05T01:43:18.497Z,958
2023-03-05T01:44:21.821Z,958
2023-03-05T01:45:25.265Z,958
2023-03-05T01:46:28.547Z,958
2023-03-05T01:47:31.872Z,958
2023-03-05T01:48:35.390Z,958
2023-03-05T01:49:38.758Z,958
2023-03-05T01:50:42.054Z,958
2023-03-05T01:51:45.489Z,958
2023-03-05T01:52:48.754Z,958
2023-03-05T01:53:52.020Z,958
2023-03-05T01:54:55.540Z,958
2023-03-05T01:55:58.817Z,958
2023-03-05T01:57:02.311Z,957
2023-03-05T01:58:05.600Z,958
2023-03-05T01:59:08.898Z,957
2023-03-05T02:00:12.218Z,957
2023-03-05T02:01:15.589Z,957
2023-03-05T02:02:18.919Z,957
2023-03-05T02:03:22.235Z,957
2023-03-05T02:04:25.523Z,957
2023-03-05T02:05:28.831Z,957
2023-03-05T02:06:32.406Z,957
2023-03-05T02:07:35.697Z,957
2023-03-05T02:08:39.005Z,957
2023-03-05T02:09:42.518Z,957
2023-03-05T02:10:45.868Z,958
2023-03-05T02:11:49.136Z,957
2023-03-05T02:12:52.491Z,957
2023-03-05T02:13:55.760Z,957
2023-03-05T02:14:59.478Z,957
2023-03-05T02:16:02.942Z,957
2023-03-05T02:17:06.235Z,957
2023-03-05T02:18:09.540Z,957
2023-03-05T02:19:12.875Z,957
2023-03-05T02:20:16.154Z,957
2023-03-05T02:21:19.526Z,957
2023-03-05T02:22:22.815Z,957
2023-03-05T02:23:26.316Z,957
2023-03-05T02:24:29.614Z,957
2023-03-05T02:25:32.872Z,957
2023-03-05T02:26:36.192Z,957
2023-03-05T02:27:39.493Z,957
2023-03-05T02:28:42.768Z,957
2023-03-05T02:29:46.038Z,957
2023-03-05T02:30:49.525Z,957
2023-03-05T02:31:53.012Z,957
2023-03-05T02:32:56.489Z,957
2023-03-05T02:33:59.767Z,957
2023-03-05T02:35:03.069Z,957
2023-03-05T02:36:06.489Z,957
2023-03-05T02:37:09.775Z,957
2023-03-05T02:38:13.078Z,957
2023-03-05T02:39:16.491Z,957
2023-03-05T02:40:19.763Z,957
2023-03-05T02:41:23.284Z,957
2023-03-05T02:42:26.617Z,957
2023-03-05T02:43:29.899Z,957
2023-03-05T02:44:33.169Z,957
2023-03-05T02:45:36.648Z,957
2023-03-05T02:46:39.987Z,957
2023-03-05T02:47:43.519Z,957
2023-03-05T02:48:46.798Z,957
2023-03-05T02:49:50.328Z,957
2023-03-05T02:50:53.641Z,957
2023-03-05T02:51:56.936Z,957
2023-03-05T02:53:00.257Z,957
2023-03-05T02:54:03.546Z,957
2023-03-05T02:55:06.858Z,957
2023-03-05T02:56:10.132Z,957
2023-03-05T02:57:13.522Z,957
2023-03-05T02:58:16.823Z,957
2023-03-05T02:59:20.335Z,957
2023-03-05T03:00:23.626Z,957
2023-03-05T03:01:26.977Z,957
2023-03-05T03:02:30.544Z,957
2023-03-05T03:03:33.958Z,957
2023-03-05T03:04:37.244Z,957
2023-03-05T03:05:40.570Z,957
2023-03-05T03:06:43.944Z,957
2023-03-05T03:07:47.489Z,957
2023-03-05T03:08:50.808Z,957
2023-03-05T03:09:54.152Z,957
2023-03-05T03:10:57.552Z,957
2023-03-05T03:12:00.832Z,957
2023-03-05T03:13:04.158Z,957
2023-03-05T03:14:10.607Z,957
2023-03-05T03:15:13.901Z,957
2023-03-05T03:16:17.437Z,957
2023-03-05T03:17:20.723Z,957
2023-03-05T03:18:24.031Z,957
2023-03-05T03:19:27.546Z,957
2023-03-05T03:20:30.815Z,957
2023-03-05T03:21:34.114Z,957
2023-03-05T03:22:37.583Z,957
2023-03-05T03:23:40.866Z,957
2023-03-05T03:24:44.406Z,957
2023-03-05T03:25:47.696Z,957
2023-03-05T03:26:50.980Z,957
2023-03-05T03:27:54.306Z,957
2023-03-05T03:28:57.590Z,957
2023-03-05T03:30:00.892Z,957
2023-03-05T03:31:04.349Z,957
2023-03-05T03:32:07.815Z,957
2023-03-05T03:33:11.316Z,957
2023-03-05T03:34:14.624Z,957
2023-03-05T03:35:18.099Z,957
2023-03-05T03:36:21.534Z,957
2023-03-05T03:37:24.800Z,957
2023-03-05T03:38:28.100Z,957
2023-03-05T03:39:31.539Z,957
2023-03-05T03:40:34.808Z,957
2023-03-05T03:41:38.363Z,957
2023-03-05T03:42:41.662Z,957
2023-03-05T03:43:44.951Z,957
2023-03-05T03:44:48.245Z,957
2023-03-05T03:45:51.713Z,957
2023-03-05T03:46:55.043Z,957
2023-03-05T03:47:58.540Z,957
2023-03-05T03:49:01.807Z,957
2023-03-05T03:50:05.403Z,957
2023-03-05T03:51:08.748Z,957
2023-03-05T03:52:12.034Z,957
2023-03-05T03:53:15.558Z,957
2023-03-05T03:54:18.927Z,957
2023-03-05T03:55:22.224Z,957
2023-03-05T03:56:25.562Z,957
2023-03-05T03:57:28.856Z,957
2023-03-05T03:58:32.370Z,957
2023-03-05T03:59:35.664Z,957
2023-03-05T04:00:38.947Z,956
2023-03-05T04:01:42.255Z,956
2023-03-05T04:02:45.715Z,956
2023-03-05T04:03:49.051Z,956
2023-03-05T04:04:52.580Z,956
2023-03-05T04:05:55.978Z,956
2023-03-05T04:06:59.498Z,956
2023-03-05T04:08:02.805Z,956
2023-03-05T04:09:06.111Z,956
2023-03-05T04:10:09.586Z,956
2023-03-05T04:11:12.912Z,956
2023-03-05T04:12:16.190Z,956
2023-03-05T04:13:19.576Z,956
2023-03-05T04:14:22.853Z,956
2023-03-05T04:15:26.376Z,956
2023-03-05T04:16:29.646Z,956
2023-03-05T04:17:32.952Z,956
2023-03-05T04:18:36.252Z,956
2023-03-05T04:19:39.554Z,956
2023-03-05T04:20:42.844Z,956
2023-03-05T04:21:46.154Z,956
2023-03-05T04:22:49.552Z,956
2023-03-05T04:23:52.847Z,956
2023-03-05T04:24:56.344Z,956
2023-03-05T04:25:59.657Z,956
2023-03-05T04:27:02.952Z,956
2023-03-05T04:28:06.330Z,956
2023-03-05T04:29:09.616Z,956
2023-03-05T04:30:12.942Z,956
2023-03-05T04:31:16.428Z,956
2023-03-05T04:32:19.825Z,956
2023-03-05T04:33:23.410Z,956
2023-03-05T04:34:26.687Z,956
2023-03-05T04:35:30.106Z,956
2023-03-05T04:36:33.567Z,956
2023-03-05T04:37:36.878Z,956
2023-03-05T04:38:40.221Z,956
2023-03-05T04:39:43.582Z,956
2023-03-05T04:40:46.941Z,956
2023-03-05T04:41:50.462Z,956
2023-03-05T04:42:53.775Z,956
2023-03-05T04:43:57.107Z,956
2023-03-05T04:45:00.582Z,956
2023-03-05T04:46:03.999Z,956
2023-03-05T04:47:07.314Z,956
2023-03-05T04:48:10.613Z,956
2023-03-05T04:49:13.922Z,956
2023-03-05T04:50:17.455Z,956
2023-03-05T04:51:20.782Z,956
2023-03-05T04:52:24.156Z,956
2023-03-05T04:53:27.613Z,956
2023-03-05T04:54:30.907Z,956
2023-03-05T04:55:34.177Z,956
2023-03-05T04:56:37.568Z,956
2023-03-05T04:57:40.911Z,956
2023-03-05T04:58:44.454Z,956
2023-03-05T04:59:47.717Z,956
2023-03-05T05:00:51.002Z,956
2023-03-05T05:01:54.432Z,956
2023-03-05T05:02:57.900Z,956
2023-03-05T05:04:01.273Z,956
2023-03-05T05:05:04.603Z,956
2023-03-05T05:06:07.893Z,956
2023-03-05T05:07:11.392Z,956
2023-03-05T05:08:14.665Z,956
2023-03-05T05:09:17.960Z,956
2023-03-05T05:10:21.239Z,956
2023-03-05T05:11:24.584Z,956
2023-03-05T05:12:27.850Z,956
2023-03-05T05:13:31.187Z,956
2023-03-05T05:14:34.596Z,956
2023-03-05T05:15:37.854Z,956
2023-03-05T05:16:41.364Z,956
2023-03-05T05:17:44.667Z,956
2023-03-05T05:18:48.015Z,956
2023-03-05T05:19:51.313Z,956
2023-03-05T05:20:54.626Z,956
2023-03-05T05:21:57.890Z,956
2023-03-05T05:23:01.151Z,956
2023-03-05T05:24:04.602Z,956
2023-03-05T05:25:07.950Z,956
2023-03-05T05:26:11.498Z,956
2023-03-05T05:27:14.788Z,956
2023-03-05T05:28:18.076Z,956
2023-03-05T05:29:21.624Z,956
2023-03-05T05:30:24.887Z,956
2023-03-05T05:31:28.397Z,956
2023-03-05T05:32:31.997Z,956
2023-03-05T05:33:35.490Z,956
2023-03-05T05:34:38.764Z,956
2023-03-05T05:35:42.221Z,956
2023-03-05T05:36:45.616Z,956
2023-03-05T05:37:48.873Z,956
2023-03-05T05:38:52.160Z,956
2023-03-05T05:39:55.594Z,956
2023-03-05T05:40:58.910Z,956
2023-03-05T05:42:02.419Z,956
2023-03-05T05:43:05.705Z,956
2023-03-05T05:44:08.984Z,956
2023-03-05T05:45:12.567Z,956
2023-03-05T05:46:16.354Z,956
2023-03-05T05:47:19.765Z,956
2023-03-05T05:48:23.073Z,956
2023-03-05T05:49:26.634Z,956
2023-03-05T05:50:30.128Z,956
2023-03-05T05:51:33.589Z,956
2023-03-05T05:52:36.903Z,956
2023-03-05T05:53:40.253Z,956
2023-03-05T05:54:43.646Z,956
2023-03-05T05:55:46.918Z,956
2023-03-05T05:56:50.432Z,956
2023-03-05T05:57:53.710Z,956
2023-03-05T05:58:57.061Z,956
2023-03-05T06:00:00.377Z,956
2023-03-05T06:01:03.691Z,956
2023-03-05T06:02:07.075Z,956
2023-03-05T06:03:10.832Z,956
2023-03-05T06:04:14.391Z,956
2023-03-05T06:05:17.688Z,956
2023-03-05T06:06:20.970Z,956
2023-03-05T06:07:24.291Z,956
2023-03-05T06:08:27.621Z,956
2023-03-05T06:09:30.904Z,956
2023-03-05T06:10:34.183Z,956
2023-03-05T06:11:37.632Z,956
2023-03-05T06:12:40.932Z,956
2023-03-05T06:13:44.583Z,956
2023-03-05T06:14:47.868Z,956
2023-03-05T06:15:51.189Z,956
2023-03-05T06:16:54.912Z,956
2023-03-05T06:17:58.222Z,956
2023-03-05T06:19:04.852Z,956
2023-03-05T06:20:08.398Z,956
2023-03-05T06:21:11.702Z,956
2023-03-05T06:22:14.976Z,956
2023-03-05T06:23:18.242Z,956
2023-03-05T06:24:24.939Z,956
2023-03-05T06:25:28.252Z,956
2023-03-05T06:26:31.645Z,956
2023-03-05T06:27:34.953Z,956
2023-03-05T06:28:40.763Z,956
2023-03-05T06:29:44.035Z,956
2023-03-05T06:30:47.882Z,956
2023-03-05T06:31:51.186Z,956
2023-03-05T06:32:54.653Z,956
2023-03-05T06:33:58.000Z,956
2023-03-05T06:35:01.288Z,956
2023-03-05T06:36:04.638Z,956
2023-03-05T06:37:07.936Z,956
2023-03-05T06:38:11.462Z,956
2023-03-05T06:39:14.739Z,956
2023-03-05T06:40:18.071Z,956
2023-03-05T06:41:21.372Z,956
2023-03-05T06:42:24.648Z,956
2023-03-05T06:43:27.936Z,956
2023-03-05T06:44:31.229Z,956
2023-03-05T06:45:35.012Z,956
2023-03-05T06:46:38.540Z,956
2023-03-05T06:47:41.810Z,956
2023-03-05T06:48:45.339Z,956
2023-03-05T16:08:04.072Z,952
2023-03-05T16:09:07.360Z,952
2023-03-05T16:10:10.690Z,952
2023-03-05T16:11:14.253Z,952
2023-03-05T16:12:17.546Z,952
2023-03-05T16:13:22.127Z,952
2023-03-05T16:14:25.420Z,952
2023-03-05T16:15:28.778Z,951
2023-03-05T16:16:32.473Z,951
2023-03-05T16:17:35.732Z,951
2023-03-05T16:18:39.318Z,951
2023-03-05T16:19:42.705Z,951
2023-03-05T16:20:46.257Z,951
2023-03-05T16:21:49.561Z,951
2023-03-05T16:22:52.845Z,951
2023-03-05T16:23:56.175Z,951
2023-03-05T16:24:59.446Z,951
2023-03-05T16:26:02.973Z,951
2023-03-05T16:27:06.264Z,951
2023-03-05T16:28:09.557Z,951
2023-03-05T16:29:15.450Z,951
2023-03-05T16:30:19.031Z,951
2023-03-05T16:31:23.338Z,951
2023-03-05T16:32:26.900Z,951
2023-03-05T16:33:30.314Z,951
2023-03-05T16:34:33.625Z,951
2023-03-05T16:35:37.259Z,951
2023-03-05T16:36:40.596Z,951
2023-03-05T16:37:43.902Z,951
2023-03-05T16:38:47.214Z,951
2023-03-05T16:39:50.626Z,951
2023-03-05T16:41:08.083Z,951
2023-03-05T16:42:11.597Z,951
2023-03-05T16:43:14.876Z,951
2023-03-05T16:44:18.221Z,951
2023-03-05T16:45:21.510Z,951
2023-03-05T16:46:25.422Z,951
2023-03-05T16:47:28.801Z,951
2023-03-05T16:48:32.309Z,951
2023-03-05T16:49:35.724Z,951
2023-03-05T16:50:39.269Z,951
2023-03-05T16:51:42.534Z,951
2023-03-05T16:52:46.150Z,951
2023-03-05T16:53:49.433Z,951
2023-03-05T16:54:52.778Z,951
2023-03-05T16:55:56.213Z,951
2023-03-05T16:57:08.725Z,951
2023-03-05T16:58:12.199Z,951
2023-03-05T16:59:15.452Z,951
2023-03-05T17:00:18.951Z,951
2023-03-05T17:01:22.537Z,951
2023-03-05T17:02:25.809Z,951
2023-03-05T17:03:29.199Z,951
2023-03-05T17:04:32.477Z,951
2023-03-05T17:05:35.750Z,951
2023-03-05T17:06:39.182Z,951
2023-03-05T17:07:42.504Z,951
2023-03-05T17:08:46.126Z,951
2023-03-05T17:09:49.394Z,951
2023-03-05T17:10:52.713Z,951
2023-03-05T17:11:56.190Z,951
2023-03-05T17:12:59.510Z,951
2023-03-05T17:14:02.824Z,951
2023-03-05T17:15:06.162Z,951
2023-03-05T17:16:09.533Z,951
2023-03-05T17:17:13.089Z,951
2023-03-05T17:18:16.365Z,951
2023-03-05T17:19:19.716Z,951
2023-03-05T17:20:23.172Z,951
2023-03-05T17:21:26.463Z,951
2023-03-05T17:22:29.745Z,951
2023-03-05T17:23:33.183Z,951
2023-03-05T17:24:36.523Z,951
2023-03-05T17:25:40.051Z,951
2023-03-05T17:26:43.393Z,951
2023-03-05T17:27:46.674Z,951
2023-03-05T17:28:50.422Z,951
2023-03-05T17:29:53.731Z,951
2023-03-05T17:30:57.186Z,951
2023-03-05T17:32:01.087Z,951
2023-03-05T17:33:04.662Z,951
2023-03-05T17:34:08.174Z,951
2023-03-05T17:35:11.532Z,951
2023-03-05T17:36:14.800Z,951
2023-03-05T17:37:18.169Z,951
2023-03-05T17:38:21.430Z,951
2023-03-05T17:39:25.155Z,951
2023-03-05T17:40:28.487Z,951
2023-03-05T17:41:31.758Z,951
2023-03-05T17:42:35.234Z,951
2023-03-05T17:43:38.494Z,951
2023-03-05T17:44:41.816Z,951
2023-03-05T17:45:45.481Z,951
2023-03-05T17:46:49.010Z,951
2023-03-05T17:47:52.282Z,951
2023-03-05T17:48:55.748Z,951
2023-03-05T17:49:59.296Z,951
2023-03-05T17:51:02.604Z,951
2023-03-05T17:52:05.900Z,951
2023-03-05T17:53:09.189Z,951
2023-03-05T17:54:12.506Z,951
2023-03-05T17:55:16.084Z,951
2023-03-05T17:56:19.409Z,951
2023-03-05T17:57:22.694Z,951
2023-03-05T17:58:26.251Z,951
2023-03-05T17:59:32.970Z,951
2023-03-05T18:00:36.258Z,951
2023-03-05T18:01:39.628Z,951
2023-03-05T18:02:43.171Z,951
2023-03-05T18:03:46.462Z,951
2023-03-05T18:04:49.767Z,951
2023-03-05T18:05:53.199Z,951
2023-03-05T18:06:56.512Z,951
2023-03-05T18:07:59.842Z,951
2023-03-05T18:09:03.208Z,951
2023-03-05T18:10:06.523Z,951
2023-03-05T18:11:10.025Z,951
2023-03-05T18:12:13.392Z,951
2023-03-05T18:13:16.692Z,951
2023-03-05T18:14:20.250Z,951
2023-03-05T18:15:23.539Z,951
2023-03-05T18:16:27.027Z,951
2023-03-05T18:17:30.385Z,951
2023-03-05T18:18:33.987Z,951
2023-03-05T18:19:37.285Z,951
2023-03-05T18:20:40.572Z,951
2023-03-05T18:21:43.864Z,951
2023-03-05T18:22:47.241Z,951
2023-03-05T18:23:50.507Z,951
2023-03-05T18:24:53.798Z,951
2023-03-05T18:25:57.236Z,951
2023-03-05T18:27:00.518Z,951
2023-03-05T18:28:04.111Z,951
2023-03-05T18:29:07.410Z,951
2023-03-05T18:30:10.753Z,951
2023-03-05T18:31:14.604Z,951
2023-03-05T18:32:18.167Z,951
2023-03-05T18:33:21.504Z,951
2023-03-05T18:34:25.029Z,951
2023-03-05T18:35:28.390Z,951
2023-03-05T18:36:32.207Z,951
2023-03-05T18:37:35.515Z,951
2023-03-05T18:38:38.845Z,951
2023-03-05T18:39:42.227Z,951
2023-03-05T18:40:45.546Z,951
2023-03-05T18:41:48.827Z,951
2023-03-05T18:42:52.233Z,951
2023-03-05T18:43:55.635Z,951
2023-03-05T18:44:58.968Z,951
2023-03-05T18:46:02.770Z,951
2023-03-05T18:47:06.239Z,951
2023-03-05T18:48:09.507Z,951
2023-03-05T18:49:13.033Z,951
2023-03-05T18:50:16.303Z,951
2023-03-05T18:51:19.590Z,951
2023-03-05T18:52:22.889Z,951
2023-03-05T18:53:26.245Z,951
2023-03-05T18:54:29.613Z,951
2023-03-05T18:55:33.008Z,951
2023-03-05T18:56:36.348Z,951
2023-03-05T18:57:39.663Z,951
2023-03-05T18:58:43.180Z,951
2023-03-05T18:59:46.542Z,951
2023-03-05T19:00:49.839Z,951
2023-03-05T19:01:53.299Z,951
2023-03-05T19:02:56.606Z,951
2023-03-05T19:04:00.144Z,951
2023-03-05T19:05:04.133Z,951
2023-03-05T19:06:07.449Z,951
2023-03-05T19:07:10.864Z,951
2023-03-05T19:08:14.218Z,951
2023-03-05T19:09:17.515Z,951
2023-03-05T19:10:20.894Z,951
2023-03-05T19:11:24.237Z,951
2023-03-05T19:12:27.556Z,951
2023-03-05T19:13:31.133Z,951
2023-03-05T19:14:34.416Z,951
2023-03-05T19:15:37.821Z,951
2023-03-05T19:16:41.276Z,951
2023-03-05T19:17:44.689Z,951
2023-03-05T19:18:47.971Z,951
2023-03-05T19:19:51.267Z,951
2023-03-05T19:20:54.593Z,951
2023-03-05T19:21:58.101Z,951
2023-03-05T19:23:01.439Z,951
2023-03-05T19:24:04.730Z,951
2023-03-05T19:25:08.250Z,951
2023-03-05T19:26:11.570Z,951
2023-03-05T19:27:14.842Z,951
2023-03-05T19:28:18.341Z,951
2023-03-05T19:29:22.061Z,951
2023-03-05T19:30:25.499Z,951
2023-03-05T19:31:31.378Z,951
2023-03-05T19:32:34.940Z,951
2023-03-05T19:33:38.356Z,951
2023-03-05T19:34:41.688Z,951
2023-03-05T19:35:45.254Z,951
2023-03-05T19:36:48.630Z,951
2023-03-05T19:37:52.152Z,951
2023-03-05T19:38:55.440Z,951
2023-03-05T19:39:58.714Z,951
2023-03-05T19:41:02.270Z,951
2023-03-05T19:42:05.595Z,951
2023-03-05T19:43:08.870Z,951
2023-03-05T19:44:12.477Z,951
2023-03-05T19:45:16.019Z,951
2023-03-05T19:46:19.577Z,951
2023-03-05T19:47:22.938Z,951
2023-03-05T19:48:26.233Z,951
2023-03-05T19:49:29.581Z,951
2023-03-05T19:50:34.882Z,950
2023-03-05T19:51:38.248Z,950
2023-03-05T19:52:41.724Z,950
2023-03-05T19:53:45.250Z,950
2023-03-05T19:54:48.592Z,950
2023-03-05T19:55:52.136Z,950
2023-03-05T19:56:55.422Z,950
2023-03-05T19:57:58.733Z,951
2023-03-05T19:59:02.245Z,951
2023-03-05T20:00:05.547Z,950
2023-03-05T20:01:08.844Z,950
2023-03-05T20:02:12.250Z,950
2023-03-05T20:03:15.600Z,950
2023-03-05T20:04:19.118Z,950
2023-03-05T20:05:25.673Z,950
2023-03-05T20:06:28.957Z,950
2023-03-05T20:07:32.238Z,950
2023-03-05T20:08:35.533Z,950
2023-03-05T20:09:38.956Z,950
2023-03-05T20:10:42.258Z,950
2023-03-05T20:11:45.566Z,950
2023-03-05T20:12:49.161Z,950
2023-03-05T20:13:52.733Z,950
2023-03-05T20:14:56.274Z,950
2023-03-05T20:15:59.731Z,950
2023-03-05T20:17:03.257Z,950
2023-03-05T20:18:10.296Z,950
2023-03-05T20:19:13.623Z,950
2023-03-05T20:20:16.900Z,950
2023-03-05T20:21:20.312Z,950
2023-03-05T20:22:23.616Z,950
2023-03-05T20:23:26.915Z,950
2023-03-05T20:24:30.281Z,950
2023-03-05T20:25:33.585Z,950
2023-03-05T20:26:37.177Z,950
2023-03-05T20:27:40.459Z,950
2023-03-05T20:28:43.741Z,950
2023-03-05T20:29:47.261Z,950
2023-03-05T20:30:50.535Z,950
2023-03-05T20:31:53.812Z,950
2023-03-05T20:32:57.253Z,950
2023-03-05T20:34:00.553Z,950
2023-03-05T20:35:04.130Z,950
2023-03-05T20:36:07.425Z,950
2023-03-05T20:37:10.753Z,950
2023-03-05T20:38:14.275Z,950
2023-03-05T20:39:17.600Z,950
2023-03-05T20:40:20.889Z,950
2023-03-05T20:41:24.274Z,950
2023-03-05T20:42:27.556Z,950
2023-03-05T20:43:31.093Z,950
2023-03-05T20:44:34.407Z,950
2023-03-05T20:45:37.709Z,950
2023-03-05T20:46:41.484Z,950
2023-03-05T20:47:44.905Z,950
2023-03-05T20:48:48.286Z,950
2023-03-05T20:49:51.599Z,950
2023-03-05T20:50:55.119Z,950
2023-03-05T20:51:58.418Z,950
2023-03-05T20:53:01.779Z,950
2023-03-05T20:54:05.450Z,950
2023-03-05T20:55:09.250Z,950
2023-03-05T20:56:12.530Z,950
2023-03-05T20:57:16.074Z,950
2023-03-05T20:58:19.366Z,950
2023-03-05T20:59:22.751Z,950
2023-03-05T21:00:26.302Z,950
2023-03-05T21:01:29.604Z,950
2023-03-05T21:02:32.897Z,950
2023-03-05T21:03:36.306Z,950
2023-03-05T21:04:39.633Z,950
2023-03-05T21:05:43.163Z,950
2023-03-05T21:06:46.613Z,950
2023-03-05T21:07:49.890Z,950
2023-03-05T21:08:53.599Z,950
2023-03-05T21:09:57.046Z,950
2023-03-05T21:11:00.353Z,950
2023-03-05T21:12:03.628Z,950
2023-03-05T21:13:07.164Z,950
2023-03-05T21:14:10.475Z,950
2023-03-05T21:15:13.775Z,950
2023-03-05T21:16:17.465Z,950
2023-03-05T21:17:20.764Z,950
2023-03-05T21:18:24.286Z,950
2023-03-05T21:19:27.748Z,950
2023-03-05T21:20:31.309Z,950
2023-03-05T21:21:34.589Z,950
2023-03-05T21:22:37.885Z,950
2023-03-05T21:23:41.302Z,950
2023-03-05T21:24:44.675Z,950
2023-03-05T21:25:48.153Z,950
2023-03-05T21:26:51.576Z,950
2023-03-05T21:27:55.123Z,950
2023-03-05T21:28:58.417Z,950
2023-03-05T21:30:02.090Z,950
2023-03-05T21:31:05.471Z,950
2023-03-05T21:32:08.868Z,950
2023-03-05T21:33:12.322Z,950
2023-03-05T21:34:15.612Z,950
2023-03-05T21:35:19.351Z,950
2023-03-05T21:36:22.657Z,950
2023-03-05T21:37:26.168Z,950
2023-03-05T21:38:29.490Z,950
2023-03-05T21:39:32.784Z,950
2023-03-05T21:40:36.409Z,950
2023-03-05T21:41:39.712Z,950
2023-03-05T21:42:43.219Z,950
2023-03-05T21:43:46.503Z,950
2023-03-05T21:44:49.825Z,950
2023-03-05T21:45:53.523Z,950
2023-03-05T21:46:56.891Z,950
2023-03-05T21:48:00.390Z,950
2023-03-05T21:49:03.657Z,950
2023-03-05T21:50:07.206Z,950
2023-03-05T21:51:10.528Z,950
2023-03-05T21:52:13.820Z,950
2023-03-05T21:53:17.317Z,950
2023-03-05T21:54:20.664Z,950
2023-03-05T21:55:23.967Z,950
2023-03-05T21:56:27.392Z,950
2023-03-05T21:57:30.707Z,950
2023-03-05T21:58:34.277Z,950
2023-03-05T21:59:37.563Z,950
2023-03-05T22:00:40.851Z,950
2023-03-05T22:01:44.319Z,950
2023-03-05T22:02:47.612Z,950
2023-03-05T22:03:51.267Z,950
2023-03-05T22:04:54.562Z,950
2023-03-05T22:05:58.101Z,950
2023-03-05T22:07:01.409Z,950
2023-03-05T22:08:04.705Z,949
2023-03-05T22:09:08.013Z,950
2023-03-05T22:10:11.332Z,949
2023-03-05T22:11:14.626Z,950
2023-03-05T22:12:17.969Z,949
2023-03-05T22:13:21.359Z,949
2023-03-05T22:14:24.629Z,949
2023-03-05T22:15:28.180Z,949
2023-03-05T22:16:31.732Z,949
2023-03-05T22:17:35.019Z,949
2023-03-05T22:18:38.364Z,949
2023-03-05T22:19:41.636Z,949
2023-03-05T22:20:44.933Z,949
2023-03-05T22:21:48.337Z,949
2023-03-05T22:22:51.621Z,949
2023-03-05T22:23:55.265Z,949
2023-03-05T22:24:58.554Z,949
2023-03-05T22:26:01.916Z,949
2023-03-05T22:27:05.449Z,949
2023-03-05T22:28:08.799Z,949
2023-03-05T22:29:12.322Z,949
2023-03-05T22:30:15.634Z,949
2023-03-05T22:31:18.911Z,949
2023-03-05T22:32:22.477Z,949
2023-03-05T22:33:25.758Z,949
2023-03-05T22:34:29.058Z,949
2023-03-05T22:35:32.441Z,949
2023-03-05T22:36:35.732Z,949
2023-03-05T22:37:39.023Z,949
2023-03-05T22:38:42.325Z,949
2023-03-05T22:39:45.614Z,949
2023-03-05T22:40:49.154Z,949
2023-03-05T22:41:52.476Z,949
2023-03-05T22:42:55.821Z,949
2023-03-05T22:43:59.455Z,949
2023-03-05T22:45:02.733Z,949
2023-03-05T22:46:06.104Z,949
2023-03-05T22:47:09.405Z,949
2023-03-05T22:48:12.821Z,949
2023-03-05T22:49:16.514Z,949
2023-03-05T22:50:19.828Z,949
2023-03-05T22:51:23.324Z,949
2023-03-05T22:52:26.627Z,949
2023-03-05T22:53:29.924Z,949
2023-03-05T22:54:33.329Z,949
2023-03-05T22:55:36.614Z,949
2023-03-05T22:56:40.147Z,949
2023-03-05T22:57:43.671Z,949
2023-03-05T22:58:46.977Z,949
2023-03-05T22:59:50.377Z,949
2023-03-05T23:00:53.656Z,949
2023-03-05T23:01:56.965Z,949
2023-03-05T23:03:00.618Z,949
2023-03-05T23:04:04.369Z,949
2023-03-05T23:05:07.687Z,949
2023-03-05T23:06:10.979Z,949
2023-03-05T23:07:14.386Z,949
2023-03-05T23:08:17.680Z,949
2023-03-05T23:09:20.983Z,949
2023-03-05T23:10:27.526Z,949
2023-03-05T23:11:30.820Z,949
2023-03-05T23:12:34.471Z,949
2023-03-05T23:13:37.798Z,949
2023-03-05T23:14:41.091Z,949
2023-03-05T23:15:44.563Z,949
2023-03-05T23:16:47.848Z,949
2023-03-05T23:17:51.413Z,949
2023-03-05T23:18:54.806Z,949
2023-03-05T23:19:58.332Z,949
2023-03-05T23:21:01.617Z,949
2023-03-05T23:22:04.903Z,949
2023-03-05T23:23:08.595Z,949
2023-03-05T23:24:11.872Z,949
2023-03-05T23:25:15.366Z,949
2023-03-05T23:26:18.674Z,949
2023-03-05T23:27:22.199Z,949
2023-03-05T23:28:25.503Z,949
2023-03-05T23:29:28.827Z,949
2023-03-05T23:30:32.149Z,949
2023-03-05T23:31:35.716Z,949
2023-03-05T23:32:39.021Z,949
2023-03-05T23:33:42.380Z,949
2023-03-05T23:34:45.664Z,949
2023-03-05T23:35:49.371Z,949
2023-03-05T23:36:52.648Z,949
2023-03-05T23:37:55.966Z,949
2023-03-05T23:38:59.355Z,949
2023-03-05T23:40:02.658Z,949
2023-03-05T23:41:05.947Z,949
2023-03-05T23:42:09.353Z,949
2023-03-05T23:43:12.690Z,949
2023-03-05T23:44:16.182Z,949
2023-03-05T23:45:19.502Z,949
2023-03-05T23:46:23.051Z,949
2023-03-05T23:47:26.532Z,949
2023-03-05T23:48:29.837Z,949
2023-03-05T23:49:33.495Z,949
2023-03-05T23:50:36.786Z,949
2023-03-05T23:51:40.291Z,949
2023-03-05T23:52:43.574Z,949